sensor_id;sensor_type;location;lat;lon;timestamp;pressure;altitude;pressure_sealevel;temperature;humidity
13456;BME280;6800;50.940;6.940;2023-02-15T00:02:09;102205.53;;;13.53;42.64
13456;BME280;6800;50.940;6.940;2023-02-15T00:06:11;102202.19;;;13.88;42.08
13456;BME280;6800;50.940;6.940;2023-02-15T00:10:12;102202.09;;;13.71;42.56
13456;BME280;6800;50.940;6.940;2023-02-15T00:14:19;102197.06;;;14.04;42.08
13456;BME280;6800;50.940;6.940;2023-02-15T00:18:21;102195.91;;;13.72;42.06
13456;BME280;6800;50.940;6.940;2023-02-15T00:22:22;102185.97;;;13.60;42.45
13456;BME280;6800;50.940;6.940;2023-02-15T00:26:24;102190.81;;;13.69;42.40
13456;BME280;6800;50.940;6.940;2023-02-15T00:30:25;102183.53;;;13.76;41.75
13456;BME280;6800;50.940;6.940;2023-02-15T00:34:27;102184.91;;;13.25;42.96
13456;BME280;6800;50.940;6.940;2023-02-15T00:38:29;102178.66;;;13.29;42.97
13456;BME280;6800;50.940;6.940;2023-02-15T00:42:31;102192.25;;;12.97;43.07
13456;BME280;6800;50.940;6.940;2023-02-15T00:46:33;102190.56;;;13.37;42.61
13456;BME280;6800;50.940;6.940;2023-02-15T00:50:34;102185.88;;;13.63;42.60
13456;BME280;6800;50.940;6.940;2023-02-15T00:54:35;102181.97;;;13.33;42.89
13456;BME280;6800;50.940;6.940;2023-02-15T00:58:37;102178.50;;;12.71;43.73
13456;BME280;6800;50.940;6.940;2023-02-15T01:02:38;102171.28;;;13.17;43.22
13456;BME280;6800;50.940;6.940;2023-02-15T01:06:40;102172.97;;;13.39;42.42
13456;BME280;6800;50.940;6.940;2023-02-15T01:10:41;102178.84;;;13.25;43.03
13456;BME280;6800;50.940;6.940;2023-02-15T01:14:45;102170.41;;;12.77;43.41
13456;BME280;6800;50.940;6.940;2023-02-15T01:18:46;102181.34;;;13.08;43.08
13456;BME280;6800;50.940;6.940;2023-02-15T01:22:48;102176.03;;;13.29;42.62
13456;BME280;6800;50.940;6.940;2023-02-15T01:26:50;102168.19;;;13.28;42.68
13456;BME280;6800;50.940;6.940;2023-02-15T01:30:52;102165.16;;;12.77;43.60
13456;BME280;6800;50.940;6.940;2023-02-15T01:34:53;102159.81;;;13.20;43.33
13456;BME280;6800;50.940;6.940;2023-02-15T01:38:55;102162.91;;;13.09;43.57
13456;BME280;6800;50.940;6.940;2023-02-15T01:42:56;102164.34;;;12.54;44.42
13456;BME280;6800;50.940;6.940;2023-02-15T01:46:57;102158.97;;;12.57;44.56
13456;BME280;6800;50.940;6.940;2023-02-15T01:51:01;102154.97;;;13.11;42.99
13456;BME280;6800;50.940;6.940;2023-02-15T01:55:04;102164.13;;;11.96;45.43
13456;BME280;6800;50.940;6.940;2023-02-15T01:59:12;102156.63;;;12.51;44.13
13456;BME280;6800;50.940;6.940;2023-02-15T02:03:15;102154.38;;;11.99;45.79
13456;BME280;6800;50.940;6.940;2023-02-15T02:07:19;102145.97;;;12.34;44.64
13456;BME280;6800;50.940;6.940;2023-02-15T02:11:21;102152.06;;;12.57;44.47
13456;BME280;6800;50.940;6.940;2023-02-15T02:15:39;102140.00;;;12.09;44.99
13456;BME280;6800;50.940;6.940;2023-02-15T02:29:08;102130.41;;;12.10;44.82
13456;BME280;6800;50.940;6.940;2023-02-15T02:37:34;102115.66;;;12.07;45.08
13456;BME280;6800;50.940;6.940;2023-02-15T02:41:48;102109.47;;;12.51;44.56
13456;BME280;6800;50.940;6.940;2023-02-15T02:46:24;102109.09;;;11.97;45.43
13456;BME280;6800;50.940;6.940;2023-02-15T02:50:29;102095.66;;;12.06;44.76
13456;BME280;6800;50.940;6.940;2023-02-15T02:54:31;102096.19;;;12.56;44.02
13456;BME280;6800;50.940;6.940;2023-02-15T02:59:00;102097.84;;;11.73;45.60
13456;BME280;6800;50.940;6.940;2023-02-15T03:03:06;102084.78;;;11.95;45.75
13456;BME280;6800;50.940;6.940;2023-02-15T03:07:12;102077.47;;;12.03;45.17
13456;BME280;6800;50.940;6.940;2023-02-15T03:11:15;102085.06;;;12.09;44.60
13456;BME280;6800;50.940;6.940;2023-02-15T03:15:24;102084.63;;;11.98;45.09
13456;BME280;6800;50.940;6.940;2023-02-15T03:19:29;102081.84;;;12.44;44.12
13456;BME280;6800;50.940;6.940;2023-02-15T03:23:32;102069.94;;;12.37;43.67
13456;BME280;6800;50.940;6.940;2023-02-15T03:27:38;102070.03;;;12.34;44.55
13456;BME280;6800;50.940;6.940;2023-02-15T03:31:43;102069.31;;;12.11;44.72
13456;BME280;6800;50.940;6.940;2023-02-15T03:35:52;102075.56;;;11.40;46.47
13456;BME280;6800;50.940;6.940;2023-02-15T03:39:59;102062.38;;;12.10;44.98
13456;BME280;6800;50.940;6.940;2023-02-15T03:44:26;102072.09;;;11.17;46.57
13456;BME280;6800;50.940;6.940;2023-02-15T03:48:38;102071.84;;;11.46;46.09
13456;BME280;6800;50.940;6.940;2023-02-15T03:52:40;102056.84;;;11.96;44.84
13456;BME280;6800;50.940;6.940;2023-02-15T03:56:42;102072.25;;;11.58;45.68
13456;BME280;6800;50.940;6.940;2023-02-15T04:01:09;102065.84;;;11.89;44.99
13456;BME280;6800;50.940;6.940;2023-02-15T04:05:31;102063.56;;;11.81;44.85
13456;BME280;6800;50.940;6.940;2023-02-15T04:09:32;102067.91;;;12.02;45.27
13456;BME280;6800;50.940;6.940;2023-02-15T04:13:52;102067.16;;;11.77;45.60
13456;BME280;6800;50.940;6.940;2023-02-15T04:17:57;102065.31;;;12.22;44.15
13456;BME280;6800;50.940;6.940;2023-02-15T04:21:59;102063.22;;;11.89;44.85
13456;BME280;6800;50.940;6.940;2023-02-15T04:26:19;102067.59;;;11.43;45.91
13456;BME280;6800;50.940;6.940;2023-02-15T04:30:23;102059.50;;;11.94;44.96
13456;BME280;6800;50.940;6.940;2023-02-15T04:34:25;102064.34;;;11.60;46.02
13456;BME280;6800;50.940;6.940;2023-02-15T04:38:27;102059.91;;;11.62;45.72
13456;BME280;6800;50.940;6.940;2023-02-15T04:42:28;102060.38;;;11.50;45.48
13456;BME280;6800;50.940;6.940;2023-02-15T04:46:30;102055.59;;;11.61;45.33
13456;BME280;6800;50.940;6.940;2023-02-15T04:50:31;102057.44;;;11.36;46.36
13456;BME280;6800;50.940;6.940;2023-02-15T04:54:33;102050.94;;;11.69;45.01
13456;BME280;6800;50.940;6.940;2023-02-15T04:58:34;102053.56;;;11.23;46.16
13456;BME280;6800;50.940;6.940;2023-02-15T05:02:36;102040.72;;;11.85;45.28
13456;BME280;6800;50.940;6.940;2023-02-15T05:06:38;102042.75;;;11.55;45.84
13456;BME280;6800;50.940;6.940;2023-02-15T05:10:40;102048.66;;;11.60;45.58
13456;BME280;6800;50.940;6.940;2023-02-15T05:14:41;102050.75;;;11.50;45.81
13456;BME280;6800;50.940;6.940;2023-02-15T05:18:43;102044.91;;;11.89;44.77
13456;BME280;6800;50.940;6.940;2023-02-15T05:22:44;102040.91;;;12.22;43.72
13456;BME280;6800;50.940;6.940;2023-02-15T05:26:45;102040.38;;;12.14;44.23
13456;BME280;6800;50.940;6.940;2023-02-15T05:31:11;102047.78;;;12.04;44.14
13456;BME280;6800;50.940;6.940;2023-02-15T05:35:14;102026.28;;;11.96;43.93
13456;BME280;6800;50.940;6.940;2023-02-15T05:39:16;102035.44;;;11.63;45.13
13456;BME280;6800;50.940;6.940;2023-02-15T05:43:18;102046.56;;;11.46;45.56
13456;BME280;6800;50.940;6.940;2023-02-15T05:47:19;102047.00;;;11.13;46.14
13456;BME280;6800;50.940;6.940;2023-02-15T05:51:21;102035.81;;;10.61;46.97
13456;BME280;6800;50.940;6.940;2023-02-15T05:55:22;102028.75;;;11.56;45.71
13456;BME280;6800;50.940;6.940;2023-02-15T05:59:24;102028.31;;;11.68;44.85
13456;BME280;6800;50.940;6.940;2023-02-15T06:03:25;102044.75;;;11.48;45.61
13456;BME280;6800;50.940;6.940;2023-02-15T06:07:29;102031.31;;;11.57;45.10
13456;BME280;6800;50.940;6.940;2023-02-15T06:11:31;102044.16;;;11.63;45.11
13456;BME280;6800;50.940;6.940;2023-02-15T06:15:32;102042.03;;;11.28;45.66
13456;BME280;6800;50.940;6.940;2023-02-15T06:19:33;102038.28;;;10.89;46.22
13456;BME280;6800;50.940;6.940;2023-02-15T06:23:35;102036.41;;;10.92;46.30
13456;BME280;6800;50.940;6.940;2023-02-15T06:27:37;102044.66;;;10.57;46.96
13456;BME280;6800;50.940;6.940;2023-02-15T06:31:38;102034.16;;;11.30;46.92
13456;BME280;6800;50.940;6.940;2023-02-15T06:35:40;102049.88;;;10.57;47.74
13456;BME280;6800;50.940;6.940;2023-02-15T06:39:42;102048.78;;;10.87;46.42
13456;BME280;6800;50.940;6.940;2023-02-15T06:43:44;102049.47;;;11.39;45.25
13456;BME280;6800;50.940;6.940;2023-02-15T06:47:45;102049.31;;;10.97;45.80
13456;BME280;6800;50.940;6.940;2023-02-15T06:51:46;102043.88;;;11.71;44.63
13456;BME280;6800;50.940;6.940;2023-02-15T06:55:48;102047.03;;;11.79;44.11
13456;BME280;6800;50.940;6.940;2023-02-15T06:59:49;102053.38;;;11.50;44.38
13456;BME280;6800;50.940;6.940;2023-02-15T07:03:51;102034.28;;;11.93;43.42
13456;BME280;6800;50.940;6.940;2023-02-15T07:07:52;102040.50;;;10.76;45.95
13456;BME280;6800;50.940;6.940;2023-02-15T07:11:53;102045.63;;;11.47;44.48
13456;BME280;6800;50.940;6.940;2023-02-15T07:16:13;102040.09;;;12.00;43.79
13456;BME280;6800;50.940;6.940;2023-02-15T07:20:20;102043.22;;;11.64;44.75
13456;BME280;6800;50.940;6.940;2023-02-15T07:24:22;102038.09;;;12.26;43.09
13456;BME280;6800;50.940;6.940;2023-02-15T07:28:24;102031.13;;;11.85;43.31
13456;BME280;6800;50.940;6.940;2023-02-15T07:32:30;102020.97;;;12.19;42.70
13456;BME280;6800;50.940;6.940;2023-02-15T07:36:32;102018.44;;;11.96;43.29
13456;BME280;6800;50.940;6.940;2023-02-15T07:40:33;102013.28;;;11.51;43.89
13456;BME280;6800;50.940;6.940;2023-02-15T07:44:34;102005.84;;;12.06;42.94
13456;BME280;6800;50.940;6.940;2023-02-15T07:48:36;101987.06;;;12.16;42.74
13456;BME280;6800;50.940;6.940;2023-02-15T07:52:37;101992.09;;;11.57;43.69
13456;BME280;6800;50.940;6.940;2023-02-15T07:56:39;101985.94;;;12.22;42.78
13456;BME280;6800;50.940;6.940;2023-02-15T08:00:40;101987.06;;;11.53;44.40
13456;BME280;6800;50.940;6.940;2023-02-15T08:05:03;101981.13;;;12.13;43.00
13456;BME280;6800;50.940;6.940;2023-02-15T08:09:08;101972.78;;;12.82;41.76
13456;BME280;6800;50.940;6.940;2023-02-15T08:13:09;101980.44;;;12.28;42.73
13456;BME280;6800;50.940;6.940;2023-02-15T08:17:11;101980.25;;;12.52;42.56
13456;BME280;6800;50.940;6.940;2023-02-15T08:21:12;101973.47;;;11.65;44.20
13456;BME280;6800;50.940;6.940;2023-02-15T08:25:13;101978.53;;;12.90;40.91
13456;BME280;6800;50.940;6.940;2023-02-15T08:29:17;101972.09;;;13.70;40.16
13456;BME280;6800;50.940;6.940;2023-02-15T08:33:19;101971.78;;;14.29;39.10
13456;BME280;6800;50.940;6.940;2023-02-15T08:37:20;101969.66;;;13.84;39.27
13456;BME280;6800;50.940;6.940;2023-02-15T08:41:24;101964.53;;;13.10;40.04
13456;BME280;6800;50.940;6.940;2023-02-15T08:45:25;101963.56;;;14.18;38.70
13456;BME280;6800;50.940;6.940;2023-02-15T08:49:27;101956.16;;;13.92;38.41
13456;BME280;6800;50.940;6.940;2023-02-15T08:53:28;101945.31;;;14.82;37.80
13456;BME280;6800;50.940;6.940;2023-02-15T08:57:29;101946.94;;;14.52;38.26
13456;BME280;6800;50.940;6.940;2023-02-15T09:01:33;101945.19;;;16.07;35.18
13456;BME280;6800;50.940;6.940;2023-02-15T09:05:34;101943.19;;;15.51;36.38
13456;BME280;6800;50.940;6.940;2023-02-15T09:09:36;101947.63;;;16.10;34.67
13456;BME280;6800;50.940;6.940;2023-02-15T09:13:38;101941.16;;;16.43;33.94
13456;BME280;6800;50.940;6.940;2023-02-15T09:17:41;101936.94;;;16.97;33.63
13456;BME280;6800;50.940;6.940;2023-02-15T09:21:45;101927.13;;;17.40;32.38
13456;BME280;6800;50.940;6.940;2023-02-15T09:25:47;101935.53;;;17.99;31.35
13456;BME280;6800;50.940;6.940;2023-02-15T09:29:49;101941.91;;;18.84;29.92
13456;BME280;6800;50.940;6.940;2023-02-15T09:33:50;101947.06;;;19.34;29.23
13456;BME280;6800;50.940;6.940;2023-02-15T09:37:52;101949.56;;;18.38;30.53
13456;BME280;6800;50.940;6.940;2023-02-15T09:46:15;101940.38;;;20.79;27.58
13456;BME280;6800;50.940;6.940;2023-02-15T09:50:34;101950.59;;;18.36;30.14
13456;BME280;6800;50.940;6.940;2023-02-15T09:59:29;101956.50;;;18.14;30.82
13456;BME280;6800;50.940;6.940;2023-02-15T10:03:47;101938.69;;;19.28;29.87
13456;BME280;6800;50.940;6.940;2023-02-15T10:16:45;101922.38;;;20.38;28.05
13456;BME280;6800;50.940;6.940;2023-02-15T10:20:55;101916.44;;;21.87;26.83
13456;BME280;6800;50.940;6.940;2023-02-15T10:25:09;101917.66;;;23.53;24.79
13456;BME280;6800;50.940;6.940;2023-02-15T10:37:44;101919.72;;;24.26;22.55
13456;BME280;6800;50.940;6.940;2023-02-15T10:42:03;101908.13;;;23.69;23.23
13456;BME280;6800;50.940;6.940;2023-02-15T10:50:47;101914.78;;;21.11;26.90
13456;BME280;6800;50.940;6.940;2023-02-15T10:55:04;101905.53;;;22.61;25.48
13456;BME280;6800;50.940;6.940;2023-02-15T11:07:43;101897.16;;;20.99;27.61
13456;BME280;6800;50.940;6.940;2023-02-15T11:11:49;101884.84;;;22.74;26.49
13456;BME280;6800;50.940;6.940;2023-02-15T11:15:55;101889.34;;;22.53;25.66
13456;BME280;6800;50.940;6.940;2023-02-15T11:20:04;101873.84;;;22.58;25.87
13456;BME280;6800;50.940;6.940;2023-02-15T11:24:13;101873.41;;;24.71;22.98
13456;BME280;6800;50.940;6.940;2023-02-15T11:28:31;101864.81;;;24.50;23.02
13456;BME280;6800;50.940;6.940;2023-02-15T11:32:35;101860.22;;;23.77;23.99
13456;BME280;6800;50.940;6.940;2023-02-15T11:36:40;101857.44;;;23.12;24.89
13456;BME280;6800;50.940;6.940;2023-02-15T11:41:13;101854.06;;;23.00;25.52
13456;BME280;6800;50.940;6.940;2023-02-15T11:45:33;101857.63;;;23.39;24.94
13456;BME280;6800;50.940;6.940;2023-02-15T11:49:35;101846.91;;;24.60;23.69
13456;BME280;6800;50.940;6.940;2023-02-15T11:53:39;101845.16;;;25.67;22.65
13456;BME280;6800;50.940;6.940;2023-02-15T11:57:44;101832.53;;;24.07;24.07
13456;BME280;6800;50.940;6.940;2023-02-15T12:01:48;101828.31;;;23.95;23.90
13456;BME280;6800;50.940;6.940;2023-02-15T12:05:54;101814.69;;;25.07;23.42
13456;BME280;6800;50.940;6.940;2023-02-15T12:14:09;101821.56;;;20.49;29.13
13456;BME280;6800;50.940;6.940;2023-02-15T12:18:42;101811.38;;;20.87;28.72
13456;BME280;6800;50.940;6.940;2023-02-15T12:22:55;101817.03;;;21.26;28.61
13456;BME280;6800;50.940;6.940;2023-02-15T12:27:15;101815.47;;;20.27;29.81
13456;BME280;6800;50.940;6.940;2023-02-15T12:31:21;101810.25;;;20.14;30.67
13456;BME280;6800;50.940;6.940;2023-02-15T12:35:30;101799.63;;;20.58;29.60
13456;BME280;6800;50.940;6.940;2023-02-15T12:39:32;101791.69;;;20.47;30.03
13456;BME280;6800;50.940;6.940;2023-02-15T12:43:37;101779.81;;;20.73;29.54
13456;BME280;6800;50.940;6.940;2023-02-15T12:47:38;101783.13;;;19.88;30.95
13456;BME280;6800;50.940;6.940;2023-02-15T12:51:45;101772.66;;;21.17;29.37
13456;BME280;6800;50.940;6.940;2023-02-15T12:55:56;101770.88;;;20.32;30.58
13456;BME280;6800;50.940;6.940;2023-02-15T13:00:25;101768.66;;;20.03;30.65
13456;BME280;6800;50.940;6.940;2023-02-15T13:04:28;101761.19;;;20.42;30.46
13456;BME280;6800;50.940;6.940;2023-02-15T13:08:31;101759.59;;;20.93;29.80
13456;BME280;6800;50.940;6.940;2023-02-15T13:12:35;101758.03;;;20.59;30.18
13456;BME280;6800;50.940;6.940;2023-02-15T13:16:38;101740.53;;;21.40;29.36
13456;BME280;6800;50.940;6.940;2023-02-15T13:20:41;101742.28;;;20.02;30.93
13456;BME280;6800;50.940;6.940;2023-02-15T13:24:48;101741.25;;;20.58;30.56
13456;BME280;6800;50.940;6.940;2023-02-15T13:29:06;101728.19;;;20.12;31.06
13456;BME280;6800;50.940;6.940;2023-02-15T13:33:22;101728.03;;;21.11;29.90
13456;BME280;6800;50.940;6.940;2023-02-15T13:37:52;101726.41;;;21.70;28.98
13456;BME280;6800;50.940;6.940;2023-02-15T13:46:48;101704.25;;;22.20;28.34
13456;BME280;6800;50.940;6.940;2023-02-15T13:55:34;101686.44;;;21.71;28.53
13456;BME280;6800;50.940;6.940;2023-02-15T14:12:43;101680.94;;;21.94;28.50
13456;BME280;6800;50.940;6.940;2023-02-15T14:21:16;101669.09;;;22.07;28.41
13456;BME280;6800;50.940;6.940;2023-02-15T14:25:27;101675.44;;;22.35;28.16
13456;BME280;6800;50.940;6.940;2023-02-15T14:33:55;101675.91;;;21.91;28.88
13456;BME280;6800;50.940;6.940;2023-02-15T14:38:00;101678.91;;;22.35;28.05
13456;BME280;6800;50.940;6.940;2023-02-15T14:42:42;101677.94;;;21.77;29.00
13456;BME280;6800;50.940;6.940;2023-02-15T14:46:45;101681.09;;;22.02;28.88
13456;BME280;6800;50.940;6.940;2023-02-15T14:50:50;101678.88;;;21.76;28.94
13456;BME280;6800;50.940;6.940;2023-02-15T14:54:53;101672.31;;;21.50;29.69
13456;BME280;6800;50.940;6.940;2023-02-15T14:58:57;101668.00;;;21.80;29.14
13456;BME280;6800;50.940;6.940;2023-02-15T15:02:59;101667.69;;;21.73;29.34
13456;BME280;6800;50.940;6.940;2023-02-15T15:15:46;101671.16;;;21.94;29.23
13456;BME280;6800;50.940;6.940;2023-02-15T15:23:52;101657.34;;;21.19;30.21
13456;BME280;6800;50.940;6.940;2023-02-15T15:27:54;101662.44;;;21.32;30.38
13456;BME280;6800;50.940;6.940;2023-02-15T15:31:58;101667.53;;;21.74;29.57
13456;BME280;6800;50.940;6.940;2023-02-15T15:49:24;101668.50;;;21.13;30.44
13456;BME280;6800;50.940;6.940;2023-02-15T15:53:32;101663.53;;;21.50;30.00
13456;BME280;6800;50.940;6.940;2023-02-15T15:57:39;101663.72;;;21.58;29.94
13456;BME280;6800;50.940;6.940;2023-02-15T16:01:43;101669.19;;;20.94;30.94
13456;BME280;6800;50.940;6.940;2023-02-15T16:05:45;101675.41;;;21.25;30.47
13456;BME280;6800;50.940;6.940;2023-02-15T16:10:00;101677.38;;;21.03;30.69
13456;BME280;6800;50.940;6.940;2023-02-15T16:14:02;101670.06;;;20.32;31.71
13456;BME280;6800;50.940;6.940;2023-02-15T16:18:04;101661.81;;;20.98;31.10
13456;BME280;6800;50.940;6.940;2023-02-15T16:22:32;101657.47;;;20.97;30.90
13456;BME280;6800;50.940;6.940;2023-02-15T16:31:14;101676.44;;;20.72;31.45
13456;BME280;6800;50.940;6.940;2023-02-15T16:35:18;101677.00;;;20.55;31.94
13456;BME280;6800;50.940;6.940;2023-02-15T16:39:20;101669.03;;;20.55;31.54
13456;BME280;6800;50.940;6.940;2023-02-15T16:43:25;101673.50;;;20.54;31.92
13456;BME280;6800;50.940;6.940;2023-02-15T16:47:30;101680.31;;;20.14;32.47
13456;BME280;6800;50.940;6.940;2023-02-15T16:51:34;101674.78;;;20.28;32.46
13456;BME280;6800;50.940;6.940;2023-02-15T16:55:40;101667.66;;;20.17;32.59
13456;BME280;6800;50.940;6.940;2023-02-15T16:59:47;101665.38;;;20.13;32.25
13456;BME280;6800;50.940;6.940;2023-02-15T17:03:51;101674.69;;;20.07;32.38
13456;BME280;6800;50.940;6.940;2023-02-15T17:12:03;101679.97;;;20.18;32.37
13456;BME280;6800;50.940;6.940;2023-02-15T17:16:23;101677.84;;;19.68;33.01
13456;BME280;6800;50.940;6.940;2023-02-15T17:20:27;101691.25;;;19.32;33.71
13456;BME280;6800;50.940;6.940;2023-02-15T17:24:38;101682.91;;;19.82;33.01
13456;BME280;6800;50.940;6.940;2023-02-15T17:28:45;101684.94;;;19.57;33.19
13456;BME280;6800;50.940;6.940;2023-02-15T17:32:56;101692.56;;;19.72;33.25
13456;BME280;6800;50.940;6.940;2023-02-15T17:36:58;101697.84;;;19.61;33.24
13456;BME280;6800;50.940;6.940;2023-02-15T17:41:03;101698.06;;;19.91;32.64
13456;BME280;6800;50.940;6.940;2023-02-15T17:45:05;101698.78;;;19.49;33.74
13456;BME280;6800;50.940;6.940;2023-02-15T17:49:14;101692.06;;;19.67;33.45
13456;BME280;6800;50.940;6.940;2023-02-15T17:53:19;101710.13;;;19.73;32.93
13456;BME280;6800;50.940;6.940;2023-02-15T17:57:20;101703.38;;;19.80;33.22
13456;BME280;6800;50.940;6.940;2023-02-15T18:01:22;101712.53;;;19.65;33.33
13456;BME280;6800;50.940;6.940;2023-02-15T18:05:42;101711.19;;;19.71;33.33
13456;BME280;6800;50.940;6.940;2023-02-15T18:10:15;101718.94;;;19.28;33.89
13456;BME280;6800;50.940;6.940;2023-02-15T18:14:36;101713.72;;;19.04;34.55
13456;BME280;6800;50.940;6.940;2023-02-15T18:18:37;101723.13;;;19.19;34.16
13456;BME280;6800;50.940;6.940;2023-02-15T18:22:38;101716.06;;;19.31;33.63
13456;BME280;6800;50.940;6.940;2023-02-15T18:26:40;101709.75;;;19.10;34.58
13456;BME280;6800;50.940;6.940;2023-02-15T18:30:41;101713.03;;;19.24;33.91
13456;BME280;6800;50.940;6.940;2023-02-15T18:34:43;101726.38;;;18.41;35.53
13456;BME280;6800;50.940;6.940;2023-02-15T18:38:46;101727.09;;;19.14;34.25
13456;BME280;6800;50.940;6.940;2023-02-15T18:42:48;101739.22;;;19.05;34.34
13456;BME280;6800;50.940;6.940;2023-02-15T18:46:49;101736.25;;;18.62;35.06
13456;BME280;6800;50.940;6.940;2023-02-15T18:50:51;101732.63;;;18.76;34.62
13456;BME280;6800;50.940;6.940;2023-02-15T18:54:54;101733.72;;;18.85;34.78
13456;BME280;6800;50.940;6.940;2023-02-15T18:58:58;101739.50;;;18.90;34.57
13456;BME280;6800;50.940;6.940;2023-02-15T19:03:00;101738.50;;;18.80;34.88
13456;BME280;6800;50.940;6.940;2023-02-15T19:07:02;101736.50;;;18.59;34.93
13456;BME280;6800;50.940;6.940;2023-02-15T19:11:04;101739.47;;;18.79;34.33
13456;BME280;6800;50.940;6.940;2023-02-15T19:15:05;101746.09;;;18.84;34.55
13456;BME280;6800;50.940;6.940;2023-02-15T19:19:07;101747.28;;;18.56;35.17
13456;BME280;6800;50.940;6.940;2023-02-15T19:23:18;101738.69;;;18.65;34.62
13456;BME280;6800;50.940;6.940;2023-02-15T19:27:29;101744.72;;;18.67;35.18
13456;BME280;6800;50.940;6.940;2023-02-15T19:31:31;101742.97;;;18.43;35.23
13456;BME280;6800;50.940;6.940;2023-02-15T19:35:35;101738.06;;;18.13;35.64
13456;BME280;6800;50.940;6.940;2023-02-15T19:39:38;101745.88;;;18.27;35.63
13456;BME280;6800;50.940;6.940;2023-02-15T19:43:40;101764.53;;;17.88;36.12
13456;BME280;6800;50.940;6.940;2023-02-15T19:47:41;101755.97;;;17.97;35.66
13456;BME280;6800;50.940;6.940;2023-02-15T19:51:43;101755.00;;;18.23;35.72
13456;BME280;6800;50.940;6.940;2023-02-15T19:55:45;101758.28;;;18.14;35.57
13456;BME280;6800;50.940;6.940;2023-02-15T19:59:46;101755.88;;;17.99;36.00
13456;BME280;6800;50.940;6.940;2023-02-15T20:03:48;101753.25;;;17.86;36.48
13456;BME280;6800;50.940;6.940;2023-02-15T20:07:52;101749.63;;;18.12;35.69
13456;BME280;6800;50.940;6.940;2023-02-15T20:11:54;101755.13;;;17.97;35.84
13456;BME280;6800;50.940;6.940;2023-02-15T20:15:55;101754.19;;;17.98;36.09
13456;BME280;6800;50.940;6.940;2023-02-15T20:19:57;101759.25;;;17.88;35.90
13456;BME280;6800;50.940;6.940;2023-02-15T20:23:59;101768.59;;;17.56;36.77
13456;BME280;6800;50.940;6.940;2023-02-15T20:28:01;101750.09;;;17.93;35.96
13456;BME280;6800;50.940;6.940;2023-02-15T20:32:03;101768.22;;;16.96;37.51
13456;BME280;6800;50.940;6.940;2023-02-15T20:36:04;101765.06;;;17.03;37.26
13456;BME280;6800;50.940;6.940;2023-02-15T20:40:33;101771.06;;;17.32;37.66
13456;BME280;6800;50.940;6.940;2023-02-15T20:44:35;101767.94;;;17.65;37.85
13456;BME280;6800;50.940;6.940;2023-02-15T20:48:36;101767.78;;;17.41;36.58
13456;BME280;6800;50.940;6.940;2023-02-15T20:52:38;101769.22;;;17.59;36.59
13456;BME280;6800;50.940;6.940;2023-02-15T20:56:39;101764.94;;;17.44;36.63
13456;BME280;6800;50.940;6.940;2023-02-15T21:00:41;101763.88;;;17.22;36.81
13456;BME280;6800;50.940;6.940;2023-02-15T21:04:42;101771.19;;;17.04;37.31
13456;BME280;6800;50.940;6.940;2023-02-15T21:08:44;101767.66;;;17.17;36.82
13456;BME280;6800;50.940;6.940;2023-02-15T21:12:45;101773.22;;;17.52;36.59
13456;BME280;6800;50.940;6.940;2023-02-15T21:16:49;101778.88;;;17.34;36.15
13456;BME280;6800;50.940;6.940;2023-02-15T21:20:54;101777.31;;;17.56;36.14
13456;BME280;6800;50.940;6.940;2023-02-15T21:24:56;101782.66;;;17.30;36.83
13456;BME280;6800;50.940;6.940;2023-02-15T21:28:58;101778.94;;;17.07;36.50
13456;BME280;6800;50.940;6.940;2023-02-15T21:32:59;101786.25;;;17.41;36.22
13456;BME280;6800;50.940;6.940;2023-02-15T21:37:00;101789.28;;;17.23;36.67
13456;BME280;6800;50.940;6.940;2023-02-15T21:41:02;101791.53;;;17.41;36.30
13456;BME280;6800;50.940;6.940;2023-02-15T21:45:23;101796.03;;;17.27;36.28
13456;BME280;6800;50.940;6.940;2023-02-15T21:49:43;101793.19;;;17.17;36.49
13456;BME280;6800;50.940;6.940;2023-02-15T21:53:45;101790.03;;;17.25;36.58
13456;BME280;6800;50.940;6.940;2023-02-15T21:57:47;101789.44;;;17.34;36.44
13456;BME280;6800;50.940;6.940;2023-02-15T22:01:49;101778.53;;;17.26;36.33
13456;BME280;6800;50.940;6.940;2023-02-15T22:05:51;101775.03;;;17.12;36.72
13456;BME280;6800;50.940;6.940;2023-02-15T22:09:52;101780.16;;;17.01;37.07
13456;BME280;6800;50.940;6.940;2023-02-15T22:13:54;101778.81;;;17.08;36.58
13456;BME280;6800;50.940;6.940;2023-02-15T22:17:55;101777.25;;;16.79;37.34
13456;BME280;6800;50.940;6.940;2023-02-15T22:21:57;101772.66;;;16.95;36.69
13456;BME280;6800;50.940;6.940;2023-02-15T22:26:07;101776.50;;;16.77;37.33
13456;BME280;6800;50.940;6.940;2023-02-15T22:30:31;101779.94;;;16.92;37.02
13456;BME280;6800;50.940;6.940;2023-02-15T22:34:33;101780.63;;;16.81;36.92
13456;BME280;6800;50.940;6.940;2023-02-15T22:38:34;101776.94;;;16.57;37.75
13456;BME280;6800;50.940;6.940;2023-02-15T22:42:35;101776.41;;;16.79;37.05
13456;BME280;6800;50.940;6.940;2023-02-15T22:46:39;101779.97;;;16.51;37.38
13456;BME280;6800;50.940;6.940;2023-02-15T22:50:40;101791.94;;;16.69;37.08
13456;BME280;6800;50.940;6.940;2023-02-15T22:54:42;101782.47;;;16.53;37.68
13456;BME280;6800;50.940;6.940;2023-02-15T22:58:44;101779.03;;;15.96;38.39
13456;BME280;6800;50.940;6.940;2023-02-15T23:02:48;101775.88;;;16.60;37.54
13456;BME280;6800;50.940;6.940;2023-02-15T23:06:50;101779.28;;;16.48;37.30
13456;BME280;6800;50.940;6.940;2023-02-15T23:10:54;101785.63;;;16.17;38.13
13456;BME280;6800;50.940;6.940;2023-02-15T23:14:56;101781.88;;;16.07;38.26
13456;BME280;6800;50.940;6.940;2023-02-15T23:18:58;101792.78;;;16.01;38.04
13456;BME280;6800;50.940;6.940;2023-02-15T23:23:00;101790.88;;;16.31;38.41
13456;BME280;6800;50.940;6.940;2023-02-15T23:27:01;101786.47;;;16.03;38.12
13456;BME280;6800;50.940;6.940;2023-02-15T23:31:27;101780.78;;;16.37;37.56
13456;BME280;6800;50.940;6.940;2023-02-15T23:35:28;101787.03;;;16.08;37.47
13456;BME280;6800;50.940;6.940;2023-02-15T23:39:30;101775.56;;;16.09;38.11
13456;BME280;6800;50.940;6.940;2023-02-15T23:43:58;101780.31;;;16.31;37.75